This is the latest recevied weather packets stored in our database for station/object VK2BNC-13. If no packets are shown the sender has not sent any weather packets the latest 1 day(s).
| Time | Temp. | Humidity | Pressure | Rain* | Wind** | Luminosity | Snow |
|---|---|---|---|---|---|---|---|
| 1778083513 | 10.56° C | 95% | - | 0 mm | - | - | - |
| 1778081714 | 11.11° C | 95% | - | 0 mm | - | - | - |
| 1778080812 | 11.67° C | 94% | - | 0 mm | - | - | - |
| 1778072703 | 13.89° C | 92% | - | 0 mm | - | - | - |
| 1778070900 | 13.89° C | 92% | - | 0 mm | - | - | - |
| 1778065495 | 14.44° C | 91% | - | 0 mm | - | - | - |
| 1778062788 | 14.44° C | 89% | - | 0 mm | - | - | - |
| 1778061888 | 14.44° C | 86% | - | 0 mm | - | - | - |
| 1778060089 | 15.56° C | 84% | - | 0 mm | - | - | - |
| 1778059186 | 16.11° C | 83% | - | 0 mm | - | - | - |
| 1778058286 | 16.67° C | 81% | - | 0 mm | - | - | - |
| 1778057386 | 16.67° C | 80% | - | 0 mm | - | - | - |
| 1778056486 | 17.22° C | 78% | - | 0 mm | - | - | - |
| 1778054686 | 18.33° C | 74% | - | 0 mm | - | - | - |
| 1778053786 | 18.33° C | 71% | - | 0 mm | - | - | - |
| 1778051984 | 20.56° C | 64% | - | 0 mm | - | - | - |
| 1778050184 | 21.67° C | 59% | - | 0 mm | - | - | - |
| 1778048384 | 22.78° C | 56% | - | 0 mm | - | - | - |
| 1778047482 | 22.78° C | 55% | - | 0 mm | - | - | - |
| 1778046580 | 22.78° C | 55% | - | 0 mm | - | - | - |
| 1778042072 | 22.22° C | 57% | - | 0 mm | - | - | - |
| 1778041172 | 22.22° C | 58% | - | 0 mm | - | - | - |
| 1778039368 | 22.22° C | 59% | - | 0 mm | - | - | - |
| 1778038467 | 22.22° C | 58% | - | 0 mm | - | - | - |
| 1778037561 | 22.22° C | 57% | - | 0 mm | - | - | - |
* Rain latest hour (hover to see other rain measurements)
** Current wind speed in m/s (hover to see current wind gust speed)